createdAt,value
2022-10-31T00:01:37.667Z,17.20
2022-10-31T00:04:07.607Z,17.20
2022-10-31T00:06:35.540Z,17.20
2022-10-31T00:09:05.831Z,17.20
2022-10-31T00:11:34.490Z,17.10
2022-10-31T00:14:02.423Z,17.10
2022-10-31T00:16:31.656Z,17.10
2022-10-31T00:19:05.659Z,17.10
2022-10-31T00:21:34.864Z,17.00
2022-10-31T00:24:03.268Z,17.00
2022-10-31T00:26:32.964Z,17.00
2022-10-31T00:29:01.824Z,17.00
2022-10-31T00:31:30.338Z,17.00
2022-10-31T00:33:59.145Z,17.00
2022-10-31T00:36:28.556Z,17.00
2022-10-31T00:38:56.967Z,17.00
2022-10-31T00:41:25.422Z,17.00
2022-10-31T00:43:56.256Z,16.90
2022-10-31T00:46:24.937Z,16.90
2022-10-31T00:48:52.777Z,16.90
2022-10-31T00:51:20.893Z,16.80
2022-10-31T00:53:48.814Z,16.80
2022-10-31T00:56:17.014Z,16.70
2022-10-31T00:58:45.108Z,16.70
2022-10-31T01:01:13.907Z,16.70
2022-10-31T01:03:42.210Z,16.60
2022-10-31T01:06:15.261Z,16.60
2022-10-31T01:08:43.543Z,16.60
2022-10-31T01:11:21.027Z,16.60
2022-10-31T01:13:51.838Z,16.60
2022-10-31T01:16:22.877Z,16.50
2022-10-31T01:18:52.906Z,16.50
2022-10-31T01:21:27.128Z,16.50
2022-10-31T01:23:59.474Z,16.50
2022-10-31T01:26:32.140Z,16.50
2022-10-31T01:29:03.191Z,16.40
2022-10-31T01:31:34.759Z,16.40
2022-10-31T01:34:03.949Z,16.40
2022-10-31T01:36:38.378Z,16.30
2022-10-31T01:39:12.127Z,16.30
2022-10-31T01:41:44.230Z,16.30
2022-10-31T01:44:15.507Z,16.30
2022-10-31T01:46:55.077Z,16.20
2022-10-31T01:49:26.344Z,16.30
2022-10-31T01:52:18.027Z,16.20
2022-10-31T01:54:53.430Z,16.20
2022-10-31T01:57:23.733Z,16.20
2022-10-31T01:59:59.282Z,16.10
2022-10-31T02:02:31.553Z,16.10
2022-10-31T02:05:03.470Z,16.10
2022-10-31T02:07:45.107Z,16.10
2022-10-31T02:10:13.607Z,16.10
2022-10-31T02:12:43.056Z,16.00
2022-10-31T02:15:12.305Z,16.00
2022-10-31T02:17:44.679Z,16.00
2022-10-31T02:20:20.873Z,16.00
2022-10-31T02:23:08.313Z,16.00
2022-10-31T02:25:50.073Z,16.00
2022-10-31T02:28:56.748Z,16.00
2022-10-31T02:31:31.728Z,16.00
2022-10-31T02:34:08.064Z,15.90
2022-10-31T02:37:04.814Z,15.90
2022-10-31T02:39:42.555Z,15.90
2022-10-31T02:42:44.426Z,15.90
2022-10-31T02:45:19.831Z,15.90
2022-10-31T02:47:51.797Z,15.90
2022-10-31T02:50:22.451Z,15.80
2022-10-31T02:52:55.074Z,15.80
2022-10-31T02:55:31.577Z,15.80
2022-10-31T02:58:13.279Z,15.80
2022-10-31T03:01:36.506Z,15.80
2022-10-31T03:04:25.825Z,15.80
2022-10-31T03:07:23.349Z,15.80
2022-10-31T03:10:33.834Z,15.80
2022-10-31T03:13:12.407Z,15.80
2022-10-31T03:15:47.041Z,15.80
2022-10-31T03:18:22.817Z,15.80
2022-10-31T03:21:03.738Z,15.80
2022-10-31T03:23:33.786Z,15.90
2022-10-31T03:26:05.584Z,16.00
2022-10-31T03:28:51.355Z,16.00
2022-10-31T03:31:25.571Z,16.00
2022-10-31T03:33:54.882Z,16.10
2022-10-31T03:36:25.827Z,16.10
2022-10-31T03:38:56.264Z,16.10
2022-10-31T03:41:29.371Z,16.10
2022-10-31T03:44:06.792Z,16.10
2022-10-31T03:46:36.459Z,16.10
2022-10-31T03:49:06.297Z,16.20
2022-10-31T03:52:04.330Z,16.10
2022-10-31T03:54:44.502Z,16.10
2022-10-31T03:57:43.329Z,16.20
2022-10-31T04:00:14.553Z,16.20
2022-10-31T04:03:10.144Z,16.20
2022-10-31T04:05:40.605Z,16.20
2022-10-31T04:08:13.750Z,16.20
2022-10-31T04:10:47.786Z,16.20
2022-10-31T04:13:21.120Z,16.20
2022-10-31T04:15:58.964Z,16.20
2022-10-31T04:18:28.275Z,16.20
2022-10-31T04:21:05.133Z,16.10
2022-10-31T04:23:33.931Z,16.10
2022-10-31T04:26:08.031Z,16.10
2022-10-31T04:28:36.724Z,16.10
2022-10-31T04:31:05.045Z,16.10
2022-10-31T04:33:35.370Z,16.10
2022-10-31T04:36:06.065Z,16.10
2022-10-31T04:38:34.901Z,16.10
2022-10-31T04:41:07.589Z,16.00
2022-10-31T04:44:05.007Z,16.00
2022-10-31T04:46:33.960Z,16.00
2022-10-31T04:49:04.906Z,15.90
2022-10-31T04:51:33.857Z,15.80
2022-10-31T04:54:02.345Z,15.80
2022-10-31T04:57:03.242Z,15.70
2022-10-31T04:59:33.256Z,15.70
2022-10-31T05:02:02.204Z,15.60
2022-10-31T05:04:45.110Z,15.60
2022-10-31T05:07:14.164Z,15.50
2022-10-31T05:09:46.015Z,15.50
2022-10-31T05:12:15.857Z,15.50
2022-10-31T05:15:16.336Z,15.40
2022-10-31T05:17:45.347Z,15.30
2022-10-31T05:20:39.113Z,15.20
2022-10-31T05:23:36.767Z,15.20
2022-10-31T05:26:07.561Z,15.10
2022-10-31T05:28:36.377Z,15.10
2022-10-31T05:31:05.722Z,15.10
2022-10-31T05:33:34.204Z,15.20
2022-10-31T05:36:21.624Z,15.20
2022-10-31T05:38:55.831Z,15.20
2022-10-31T05:41:32.640Z,15.20
2022-10-31T05:44:08.259Z,15.20
2022-10-31T05:46:56.292Z,15.30
2022-10-31T05:49:43.139Z,15.40
2022-10-31T05:52:29.637Z,15.40
2022-10-31T05:55:07.439Z,15.50
2022-10-31T05:57:35.725Z,15.50
2022-10-31T06:00:04.986Z,15.60
2022-10-31T06:02:39.177Z,15.70
2022-10-31T06:05:36.415Z,15.90
2022-10-31T06:08:04.867Z,16.00
2022-10-31T06:10:33.445Z,16.20
2022-10-31T06:13:01.553Z,16.30
2022-10-31T06:15:39.954Z,16.40
2022-10-31T06:18:10.179Z,16.60
2022-10-31T06:20:49.464Z,16.70
2022-10-31T06:23:17.547Z,16.90
2022-10-31T06:25:51.886Z,17.00
2022-10-31T06:28:20.008Z,17.20
2022-10-31T06:30:54.815Z,17.40
2022-10-31T06:33:23.777Z,17.60
2022-10-31T06:35:58.902Z,17.80
2022-10-31T06:38:29.058Z,18.00
2022-10-31T06:40:58.738Z,18.20
2022-10-31T06:43:28.522Z,18.40
2022-10-31T06:46:28.116Z,18.60
2022-10-31T06:49:16.797Z,18.90
2022-10-31T06:51:55.448Z,19.10
2022-10-31T06:54:23.938Z,19.30
2022-10-31T06:56:52.406Z,19.50
2022-10-31T06:59:20.951Z,19.70
2022-10-31T07:02:16.392Z,19.90
2022-10-31T07:04:45.481Z,20.00
2022-10-31T07:07:18.626Z,20.20
2022-10-31T07:09:48.037Z,20.40
2022-10-31T07:12:18.779Z,20.60
2022-10-31T07:14:56.151Z,20.80
2022-10-31T07:17:29.871Z,20.90
2022-10-31T07:20:01.407Z,21.00
2022-10-31T07:22:38.087Z,21.20
2022-10-31T07:25:11.942Z,21.30
2022-10-31T07:27:58.555Z,21.40
2022-10-31T07:30:26.976Z,21.60
2022-10-31T07:32:57.951Z,21.70
2022-10-31T07:35:39.716Z,21.80
2022-10-31T07:38:12.025Z,21.80
2022-10-31T07:40:41.008Z,22.00
2022-10-31T07:43:13.955Z,22.20
2022-10-31T07:46:02.586Z,22.30
2022-10-31T07:48:49.140Z,22.50
2022-10-31T07:51:52.487Z,22.70
2022-10-31T07:54:39.313Z,23.00
2022-10-31T07:57:10.573Z,23.20
2022-10-31T07:59:39.886Z,23.40
2022-10-31T08:02:10.154Z,23.60
2022-10-31T08:04:50.716Z,23.70
2022-10-31T08:07:48.202Z,23.90
2022-10-31T08:10:22.291Z,24.40
2022-10-31T08:13:01.597Z,24.60
2022-10-31T08:15:31.159Z,24.70
2022-10-31T08:18:00.562Z,25.00
2022-10-31T08:20:29.417Z,25.00
2022-10-31T08:23:01.346Z,25.20
2022-10-31T08:25:35.347Z,25.50
2022-10-31T08:28:08.009Z,25.80
2022-10-31T08:30:38.325Z,25.70
2022-10-31T08:33:24.620Z,25.90
2022-10-31T08:36:11.469Z,26.30
2022-10-31T08:38:53.223Z,26.60
2022-10-31T08:41:23.791Z,26.70
2022-10-31T08:43:51.901Z,27.20
2022-10-31T08:46:20.369Z,27.30
2022-10-31T08:48:50.347Z,27.10
2022-10-31T08:51:20.604Z,27.00
2022-10-31T08:53:52.411Z,27.20
2022-10-31T08:56:26.488Z,27.20
2022-10-31T08:58:55.168Z,27.00
2022-10-31T09:01:33.523Z,27.10
2022-10-31T09:04:02.075Z,27.90
2022-10-31T09:06:30.214Z,27.90
2022-10-31T09:08:58.435Z,28.10
2022-10-31T09:11:27.532Z,28.30
2022-10-31T09:14:14.104Z,28.00
2022-10-31T09:17:00.633Z,28.20
2022-10-31T09:19:45.165Z,28.40
2022-10-31T09:22:13.386Z,28.70
2022-10-31T09:24:41.380Z,28.60
2022-10-31T09:27:10.445Z,28.90
2022-10-31T09:29:42.240Z,29.10
2022-10-31T09:32:12.995Z,29.80
2022-10-31T09:34:46.627Z,30.00
2022-10-31T09:37:20.639Z,30.10
2022-10-31T09:39:48.946Z,29.90
2022-10-31T09:42:25.646Z,30.20
2022-10-31T09:45:03.041Z,30.60
2022-10-31T09:48:03.255Z,30.90
2022-10-31T09:51:05.328Z,30.60
2022-10-31T09:54:06.877Z,30.50
2022-10-31T09:56:36.942Z,31.10
2022-10-31T09:59:12.736Z,31.80
2022-10-31T10:01:52.508Z,32.20
2022-10-31T10:04:39.272Z,32.00
2022-10-31T10:07:43.704Z,32.40
2022-10-31T10:10:59.320Z,33.70
2022-10-31T10:13:47.491Z,34.20
2022-10-31T10:16:41.637Z,34.80
2022-10-31T10:19:46.603Z,35.20
2022-10-31T10:22:24.941Z,34.50
2022-10-31T10:25:24.692Z,34.90
2022-10-31T10:28:23.633Z,34.60
2022-10-31T10:31:05.633Z,34.80
2022-10-31T10:34:09.584Z,35.20
2022-10-31T10:36:52.283Z,35.80
2022-10-31T10:39:29.325Z,36.20
2022-10-31T10:42:17.865Z,36.60
2022-10-31T10:45:07.286Z,36.60
2022-10-31T10:48:02.141Z,37.90
2022-10-31T10:50:37.716Z,38.30
2022-10-31T10:53:08.144Z,38.20
2022-10-31T10:56:06.505Z,39.30
2022-10-31T10:58:34.545Z,39.90
2022-10-31T11:01:02.498Z,39.60
2022-10-31T11:03:30.958Z,38.30
2022-10-31T11:06:00.231Z,39.70
2022-10-31T11:08:31.451Z,41.10
2022-10-31T11:11:06.721Z,41.00
2022-10-31T11:13:36.469Z,40.50
2022-10-31T11:16:35.527Z,41.10
2022-10-31T11:19:20.485Z,41.20
2022-10-31T11:21:52.900Z,41.90
2022-10-31T11:24:24.945Z,41.20
2022-10-31T11:26:53.555Z,40.70
2022-10-31T11:29:26.817Z,40.50
2022-10-31T11:32:01.382Z,40.20
2022-10-31T11:34:32.321Z,39.20
2022-10-31T11:37:26.362Z,39.60
2022-10-31T11:39:57.649Z,40.50
2022-10-31T11:42:31.654Z,40.00
2022-10-31T11:45:00.354Z,39.60
2022-10-31T11:47:33.761Z,39.60
2022-10-31T11:50:11.176Z,39.70
2022-10-31T11:52:41.846Z,39.70
2022-10-31T11:55:20.322Z,39.30
2022-10-31T11:57:51.705Z,39.80
2022-10-31T12:00:24.400Z,39.70
2022-10-31T12:03:05.947Z,39.80
2022-10-31T12:05:35.265Z,40.10
2022-10-31T12:08:04.757Z,41.10
2022-10-31T12:10:56.672Z,41.00
2022-10-31T12:13:50.127Z,41.30
2022-10-31T12:16:33.295Z,41.10
2022-10-31T12:19:19.884Z,41.20
2022-10-31T12:22:05.937Z,41.50
2022-10-31T12:24:39.906Z,41.20
2022-10-31T12:27:47.825Z,41.30
2022-10-31T12:30:45.041Z,41.40
2022-10-31T12:33:31.325Z,41.20
2022-10-31T12:36:36.136Z,41.80
2022-10-31T12:39:30.843Z,41.70
2022-10-31T12:42:25.514Z,41.80
2022-10-31T12:45:12.353Z,42.00
2022-10-31T12:47:40.595Z,41.80
2022-10-31T12:50:48.930Z,41.50
2022-10-31T12:53:25.051Z,41.60
2022-10-31T12:56:23.424Z,41.30
2022-10-31T12:59:01.106Z,41.30
2022-10-31T13:01:36.467Z,41.80
2022-10-31T13:04:17.603Z,42.30
2022-10-31T13:06:56.288Z,42.50
2022-10-31T13:09:56.711Z,42.50
2022-10-31T13:12:25.951Z,42.60
2022-10-31T13:15:05.525Z,42.40
2022-10-31T13:17:41.720Z,42.10
2022-10-31T13:20:18.711Z,42.10
2022-10-31T13:22:50.931Z,42.50
2022-10-31T13:25:26.328Z,42.40
2022-10-31T13:28:02.417Z,43.20
2022-10-31T13:30:42.573Z,42.80
2022-10-31T13:33:23.646Z,42.90
2022-10-31T13:36:14.960Z,42.50
2022-10-31T13:39:14.691Z,41.00
2022-10-31T13:41:49.660Z,40.10
2022-10-31T13:44:27.932Z,38.20
2022-10-31T13:46:58.653Z,36.80
2022-10-31T13:49:32.511Z,35.20
2022-10-31T13:52:10.893Z,33.70
2022-10-31T13:54:45.631Z,32.60
2022-10-31T13:57:53.331Z,31.30
2022-10-31T14:00:21.440Z,30.10
2022-10-31T14:02:59.014Z,29.60
2022-10-31T14:05:31.252Z,29.00
2022-10-31T14:08:02.069Z,28.70
2022-10-31T14:10:52.533Z,28.30
2022-10-31T14:13:45.075Z,28.00
2022-10-31T14:16:35.043Z,27.80
2022-10-31T14:19:21.130Z,27.80
2022-10-31T14:21:50.665Z,27.90
2022-10-31T14:24:27.321Z,27.90
2022-10-31T14:27:01.522Z,28.00
2022-10-31T14:29:35.541Z,27.90
2022-10-31T14:32:14.305Z,28.10
2022-10-31T14:35:02.504Z,28.20
2022-10-31T14:37:59.620Z,28.30
2022-10-31T14:40:44.164Z,28.00
2022-10-31T14:44:01.090Z,28.10
2022-10-31T14:46:38.017Z,28.20
2022-10-31T14:49:21.553Z,28.10
2022-10-31T14:51:52.060Z,27.80
2022-10-31T14:54:45.624Z,28.10
2022-10-31T14:57:32.480Z,28.60
2022-10-31T15:00:07.887Z,29.30
2022-10-31T15:02:49.765Z,30.00
2022-10-31T15:05:19.609Z,30.50
2022-10-31T15:07:59.078Z,31.20
2022-10-31T15:10:33.909Z,32.00
2022-10-31T15:13:25.581Z,32.50
2022-10-31T15:15:57.169Z,32.70
2022-10-31T15:18:31.223Z,32.50
2022-10-31T15:21:00.765Z,32.60
2022-10-31T15:23:31.369Z,32.40
2022-10-31T15:26:05.567Z,32.20
2022-10-31T15:28:34.015Z,32.00
2022-10-31T15:31:03.697Z,32.20
2022-10-31T15:33:45.241Z,32.50
2022-10-31T15:36:27.289Z,32.30
2022-10-31T15:39:01.285Z,32.20
2022-10-31T15:41:54.204Z,31.90
2022-10-31T15:44:35.306Z,31.80
2022-10-31T15:47:06.621Z,31.50
2022-10-31T15:49:37.539Z,31.20
2022-10-31T15:52:15.373Z,30.70
2022-10-31T15:54:53.542Z,29.90
2022-10-31T15:57:21.927Z,29.10
2022-10-31T15:59:51.346Z,28.30
2022-10-31T16:02:28.863Z,27.60
2022-10-31T16:05:00.553Z,27.00
2022-10-31T16:07:30.885Z,26.50
2022-10-31T16:10:04.681Z,26.10
2022-10-31T16:12:54.098Z,25.70
2022-10-31T16:15:23.231Z,25.40
2022-10-31T16:17:56.730Z,25.20
2022-10-31T16:20:30.485Z,25.00
2022-10-31T16:23:00.637Z,24.80
2022-10-31T16:25:38.459Z,24.70
2022-10-31T16:28:16.553Z,24.60
2022-10-31T16:30:48.689Z,24.50
2022-10-31T16:33:29.153Z,24.40
2022-10-31T16:36:09.566Z,24.30
2022-10-31T16:38:45.539Z,24.10
2022-10-31T16:41:13.718Z,24.00
2022-10-31T16:43:41.902Z,23.90
2022-10-31T16:48:49.106Z,23.70
2022-10-31T16:51:17.607Z,23.60
2022-10-31T16:53:46.841Z,23.50
2022-10-31T16:56:33.728Z,23.40
2022-10-31T16:59:05.175Z,23.30
2022-10-31T17:01:34.318Z,23.20
2022-10-31T17:04:02.798Z,23.10
2022-10-31T17:06:30.987Z,23.10
2022-10-31T17:08:59.062Z,23.00
2022-10-31T17:11:28.206Z,22.90
2022-10-31T17:13:58.047Z,22.90
2022-10-31T17:16:26.657Z,22.80
2022-10-31T17:18:54.688Z,22.70
2022-10-31T17:21:25.361Z,22.60
2022-10-31T17:23:54.474Z,22.60
2022-10-31T17:26:22.595Z,22.50
2022-10-31T17:28:50.837Z,22.50
2022-10-31T17:31:23.713Z,22.50
2022-10-31T17:34:00.106Z,22.50
2022-10-31T17:36:32.128Z,22.50
2022-10-31T17:39:00.598Z,22.40
2022-10-31T17:41:29.049Z,22.40
2022-10-31T17:43:58.189Z,22.40
2022-10-31T17:46:30.413Z,22.30
2022-10-31T17:49:01.540Z,22.30
2022-10-31T17:51:30.320Z,22.30
2022-10-31T17:53:59.838Z,22.20
2022-10-31T17:56:28.369Z,22.10
2022-10-31T17:58:58.870Z,22.10
2022-10-31T18:01:28.165Z,22.00
2022-10-31T18:03:56.317Z,22.00
2022-10-31T18:06:25.234Z,22.00
2022-10-31T18:08:53.703Z,21.90
2022-10-31T18:11:22.747Z,21.90
2022-10-31T18:14:00.448Z,21.80
2022-10-31T18:16:28.978Z,21.70
2022-10-31T18:19:02.569Z,21.60
2022-10-31T18:21:31.448Z,21.60
2022-10-31T18:24:01.312Z,21.60
2022-10-31T18:26:29.956Z,21.60
2022-10-31T18:28:58.553Z,21.60
2022-10-31T18:31:26.757Z,21.60
2022-10-31T18:33:56.561Z,21.50
2022-10-31T18:36:25.690Z,21.50
2022-10-31T18:38:54.419Z,21.50
2022-10-31T18:41:22.992Z,21.40
2022-10-31T18:43:51.727Z,21.40
2022-10-31T18:46:20.529Z,21.40
2022-10-31T18:48:48.773Z,21.30
2022-10-31T18:51:18.896Z,21.30
2022-10-31T18:53:55.373Z,21.20
2022-10-31T18:56:24.108Z,21.20
2022-10-31T18:58:52.394Z,21.20
2022-10-31T19:01:21.972Z,21.10
2022-10-31T19:03:54.930Z,21.10
2022-10-31T19:06:28.139Z,21.00
2022-10-31T19:09:02.207Z,21.00
2022-10-31T19:11:34.315Z,21.00
2022-10-31T19:14:03.323Z,21.00
2022-10-31T19:16:32.266Z,21.00
2022-10-31T19:19:00.702Z,20.90
2022-10-31T19:21:29.413Z,20.90
2022-10-31T19:23:58.616Z,20.90
2022-10-31T19:26:27.891Z,20.90
2022-10-31T19:28:57.347Z,20.90
2022-10-31T19:31:25.766Z,20.90
2022-10-31T19:33:54.404Z,20.80
2022-10-31T19:36:24.217Z,20.70
2022-10-31T19:38:54.221Z,20.70
2022-10-31T19:41:40.513Z,20.70
2022-10-31T19:44:13.266Z,20.70
2022-10-31T19:46:53.445Z,20.70
2022-10-31T19:49:22.729Z,20.70
2022-10-31T19:51:51.313Z,20.60
2022-10-31T19:54:19.388Z,20.50
2022-10-31T19:56:47.441Z,20.50
2022-10-31T19:59:15.805Z,20.50
2022-10-31T20:01:48.330Z,20.40
2022-10-31T20:04:16.597Z,20.50
2022-10-31T20:06:44.932Z,20.40
2022-10-31T20:09:14.469Z,20.40
2022-10-31T20:11:45.085Z,20.40
2022-10-31T20:14:17.163Z,20.40
2022-10-31T20:16:46.599Z,20.30
2022-10-31T20:19:14.975Z,20.30
2022-10-31T20:21:43.406Z,20.30
2022-10-31T20:24:12.115Z,20.30
2022-10-31T20:26:41.417Z,20.20
2022-10-31T20:29:16.349Z,20.20
2022-10-31T20:31:46.578Z,20.10
2022-10-31T20:34:15.803Z,20.10
2022-10-31T20:36:46.217Z,20.00
2022-10-31T20:39:14.801Z,19.90
2022-10-31T20:41:42.880Z,19.90
2022-10-31T20:44:11.129Z,19.80
2022-10-31T20:46:39.297Z,19.80
2022-10-31T20:49:07.742Z,19.70
2022-10-31T20:51:35.737Z,19.80
2022-10-31T20:54:04.220Z,19.80
2022-10-31T20:56:32.182Z,19.70
2022-10-31T20:59:00.539Z,19.70
2022-10-31T21:01:36.817Z,19.70
2022-10-31T21:04:06.741Z,19.70
2022-10-31T21:06:35.831Z,19.70
2022-10-31T21:09:04.428Z,19.60
2022-10-31T21:11:32.568Z,19.60
2022-10-31T21:14:00.801Z,19.60
2022-10-31T21:16:31.703Z,19.60
2022-10-31T21:19:01.503Z,19.50
2022-10-31T21:21:33.353Z,19.50
2022-10-31T21:24:07.880Z,19.50
2022-10-31T21:26:39.450Z,19.50
2022-10-31T21:29:08.767Z,19.40
2022-10-31T21:31:38.100Z,19.40
2022-10-31T21:34:06.905Z,19.30
2022-10-31T21:36:36.716Z,19.30
2022-10-31T21:39:07.676Z,19.30
2022-10-31T21:41:36.666Z,19.30
2022-10-31T21:44:05.524Z,19.20
2022-10-31T21:46:34.904Z,19.10
2022-10-31T21:49:04.309Z,19.10
2022-10-31T21:51:35.917Z,19.10
2022-10-31T21:54:22.720Z,19.10
2022-10-31T21:56:52.237Z,19.10
2022-10-31T21:59:20.710Z,19.00
2022-10-31T22:01:49.305Z,19.00
2022-10-31T22:04:17.812Z,19.00
2022-10-31T22:06:46.403Z,19.00
2022-10-31T22:09:15.535Z,19.00
2022-10-31T22:11:44.290Z,19.00
2022-10-31T22:14:14.243Z,19.00
2022-10-31T22:16:42.932Z,19.00
2022-10-31T22:19:13.320Z,18.90
2022-10-31T22:21:49.475Z,18.90
2022-10-31T22:24:18.838Z,18.80
2022-10-31T22:26:46.827Z,18.80
2022-10-31T22:29:17.719Z,18.70
2022-10-31T22:31:51.869Z,18.60
2022-10-31T22:34:24.245Z,18.60
2022-10-31T22:36:56.435Z,18.60
2022-10-31T22:39:24.931Z,18.60
2022-10-31T22:41:52.960Z,18.60
2022-10-31T22:44:21.083Z,18.60
2022-10-31T22:46:49.341Z,18.60
2022-10-31T22:49:20.939Z,18.50
2022-10-31T22:51:52.552Z,18.50
2022-10-31T22:54:20.798Z,18.40
2022-10-31T22:56:48.646Z,18.40
2022-10-31T22:59:17.662Z,18.30
2022-10-31T23:01:46.486Z,18.30
2022-10-31T23:04:16.683Z,18.30
2022-10-31T23:06:45.230Z,18.20
2022-10-31T23:09:16.103Z,18.20
2022-10-31T23:11:45.375Z,18.20
2022-10-31T23:14:21.175Z,18.20
2022-10-31T23:16:53.310Z,18.20
2022-10-31T23:19:22.574Z,18.20
2022-10-31T23:22:03.408Z,18.10
2022-10-31T23:24:46.546Z,18.10
2022-10-31T23:27:18.993Z,18.00
2022-10-31T23:29:52.269Z,18.10
2022-10-31T23:32:29.894Z,18.00
2022-10-31T23:37:45.112Z,18.00
2022-10-31T23:40:13.375Z,18.10
2022-10-31T23:42:41.285Z,18.10
2022-10-31T23:45:09.619Z,18.20
2022-10-31T23:47:43.254Z,18.10
2022-10-31T23:50:12.000Z,18.10
2022-10-31T23:52:39.788Z,18.10
2022-10-31T23:55:08.558Z,18.00
2022-10-31T23:57:36.632Z,18.00
